• Join FlightAware (Why Join?)
  • Login
  • US Flag 
11:25AM EST


 

Airport Tracker/Info


-or-


 

Live Flight TrackerFlight Track Log ✈ AMF9313 ✈ 10-Jan-2014 ✈ KSDF - KMQY

Flight Track Log - Related Links

Times and Time Zones

All times are in EST time to prevent confusion due to time zone crossing. See the AMF9313 flight status page for this flight to view local times or setup timezone preferences in your user account.

Time Position Orientation Groundspeed Altitude Reporting Facility
EST Latitude Longitude Course Direction KTS MPH feet Rate Location/Type
09:18PM 38.1500 -85.7333 190° South 149 171 2,800  Level Louisville TRACON
09:20PM 38.1436 -85.7986 263° West 130 150 6,000 2,460 Climbing Indianapolis Center
09:21PM 38.1108 -85.8144 201° Southwest 133 153 8,400 1,860 Climbing Indianapolis Center
09:22PM 38.0758 -85.8267 195° South 131 151 9,900 780 Climbing Indianapolis Center
09:23PM 38.0336 -85.8422 196° South 145 167 10,000  Climbing Indianapolis Center
09:24PM 37.8564 -85.8544 190° South  Level Estimated
09:24PM 37.9847 -85.8575 194° South 166 191 10,000  Level Indianapolis Center
09:25PM 37.9339 -85.8750 195° South 180 207 10,000  Level Indianapolis Center
09:26PM 37.8856 -85.8903 194° South 179 206 10,000  Level Indianapolis Center
09:27PM 37.8358 -85.9092 197° South 183 211 10,000  Level Indianapolis Center
09:28PM 37.7878 -85.9258 195° South 180 207 10,000  Level Indianapolis Center
09:29PM 37.7392 -85.9414 194° South 178 205 10,000  Level Indianapolis Center
09:30PM 37.6900 -85.9581 195° South 182 209 10,000  Level Indianapolis Center
09:31PM 37.6425 -85.9747 196° South 175 201 10,000  Level Indianapolis Center
09:32PM 37.5928 -85.9917 195° South 182 209 10,000  Level Indianapolis Center
09:33PM 37.5403 -86.0094 195° South 171 197 10,000  Level Indianapolis Center
09:34PM 37.4917 -86.0253 194° South 176 203 10,000  Level Indianapolis Center
09:35PM 37.4419 -86.0436 196° South 182 209 10,000  Level Indianapolis Center
09:36PM 37.3931 -86.0583 193° South 181 208 10,000  Level Indianapolis Center
09:37PM 37.3436 -86.0753 195° South 182 209 10,000  Level Indianapolis Center
09:38PM 37.2944 -86.0931 196° South 181 208 10,000  Level Indianapolis Center
09:39PM 37.2464 -86.1081 194° South 179 206 10,000  Level Indianapolis Center
09:40PM 37.1983 -86.1244 195° South 176 203 10,000  Level Indianapolis Center
09:41PM 37.1500 -86.1400 194° South 178 205 10,000  Level Indianapolis Center
09:42PM 37.1025 -86.1594 198° South 178 205 10,000 -300 Level Indianapolis Center
09:43PM 37.0547 -86.1783 198° South 177 204 9,400 -840 Descending Indianapolis Center
09:44PM 37.0008 -86.1947 194° South 194 223 8,400 -780 Descending Indianapolis Center
09:45PM 36.9478 -86.2083 192° South 193 222 7,900 -300 Descending Indianapolis Center
09:46PM 36.8900 -86.2258 194° South 183 211 7,900 60 Level Indianapolis Center
09:47PM 36.8661 -86.2336 195° South 181 208 8,000 60 Climbing Memphis Center
09:48PM 36.8192 -86.2519 197° South 176 203 8,000  Level Memphis Center
09:49PM 36.7717 -86.2678 195° South 176 203 8,000  Level Memphis Center
09:50PM 36.7236 -86.2844 196° South 176 203 8,000  Level Memphis Center
09:51PM 36.6758 -86.3003 195° South 176 203 8,000  Level Memphis Center
09:52PM 36.6283 -86.3153 194° South 175 201 8,000 -540 Level Memphis Center
09:53PM 36.5761 -86.3325 195° South 186 214 7,000 -1,260 Descending Memphis Center
09:54PM 36.5239 -86.3492 194° South 191 220 5,500 -1,320 Descending Memphis Center
09:55PM 36.4689 -86.3678 195° South 199 229 4,400 -960 Descending Memphis Center
09:56PM 36.4164 -86.3878 197° South 198 228 3,600 -720 Descending Memphis Center
09:57PM 36.3656 -86.4047 195° South 189 217 3,000 -300 Descending Memphis Center
09:58PM 36.3192 -86.4194 194° South 177 204 3,000  Level Memphis Center
09:59PM 36.2750 -86.4328 194° South 165 190 3,000  Level Memphis Center
10:00PM 36.2239 -86.4506 196° South 161 185 3,000  Level Memphis Center
10:01PM 36.1808 -86.4656 196° South 160 184 3,000 -180 Level Memphis Center
10:02PM 36.1408 -86.4892 205° Southwest 158 182 2,700 -360 Descending Memphis Center
10:03PM 36.1064 -86.5094 205° Southwest 143 165 2,300 -480 Descending Memphis Center
10:04PM 36.0747 -86.5147 188° South 125 144 1,800 -600 Descending Memphis Center
10:05PM 36.0483 -86.5175 185° South 107 123 1,100 -600 Descending Memphis Center
10:06PM 36.0233 -86.5192 183° South 104 120 700 -420 Descending Memphis Center
10:08PM 36.0090 -86.5201 195° South  Level Estimated